Main page
METAR-TAF:

METAR-TAF

Airports :

Alderney Airport

Alderney,

latitude: 49-43N, longitude: 002-12W, elevation: 71 m

Current weather observation

The report was made 35 minutes ago, at 07:20 UTC
Wind 13 kt from the West
Temperature 15°C
Humidity 94%
Pressure 1006 hPa
Visibility 10 km or more
Scattered clouds at a height of 500 ft
Broken clouds at a height of 1500 ft

METAR: EGJA 180720Z 28013KT 9999 SCT005 BKN015 15/14 Q1006

Time: 08:55 (07:55 UTC)

Forecast

The report was made 1 hour and 12 minutes ago, at 06:43 UTC
Forecast valid from 18 at 06 UTC to 18 at 15 UTC
Wind 16 kt from the West
Visibility 10 km or more
Few clouds at a height of 800 ft
Scattered clouds at a height of 1500 ft
Probability 30% :
Temporary
from 18 at 06 UTC to 18 at 10 UTC
Visibility: 7000 m
Broken clouds at a height of 1000 ft
rain showers

TAF: EGJA 180643Z 1806/1815 28016KT 9999 FEW008 SCT015 PROB30 TEMPO 1806/1810 7000 SHRA BKN010

Weather observations and forecasts of more than 4000 airports (METAR and TAF reports).

The available stations are represented by yellow and red dots on the map.

Hover mouse over dot to see the name of the station.

Then click to see weather observations and forecasts.

To change the map : click on the green buttons with a black cross to zoom in, on the green button with a dash to zoom out, or on the green arrows for adjacent maps.


METAR-TAF: